Tobago, Trinidad and Tobago
Current Conditions -  °F | °C
As of 3:18 AM on Friday 24 Oct 2014 (Local Time) from TTCP Reporting Station
Rain Showers Rain Showers  
Wind Chill: 75°   Ceiling: 1100
Heat Index: 75°   Visibility: 0.5mi
Dew Point: 73°   Wind: 17mph
Humidity: 94%   Direction: 80°E
Pressure: 29.88"   Gusts: NA
Location:  11.22°N, 60.67°W
Report Text: TTCP 240718Z 08015KT 0800 SHRA SCT008CB BKN011 24/23 Q1012
Loading
Personal Weather Stations






























Interactive Weather Map New forecast layout! Learn more

10-Day Weather Forecast

Advertisements
Track Severe Weather on mobile